• Join FlightAware (Why Join?)
  • Login
  • US Flag 
10:53PM EDT


 

Airport Tracker/Info


-or-


 

Live Flight TrackerFlight Track Log ✈ CSJ405 ✈ 30-Apr-2013 ✈ CYMX - KALB

Flight Track Log - Related Links

Times and Time Zones

All times are in EDT time to prevent confusion due to time zone crossing. See the CSJ405 flight status page for this flight to view local times or setup timezone preferences in your user account.

Time Position Orientation Groundspeed Altitude Reporting Facility
EDT Latitude Longitude Course Direction KTS MPH feet Rate Location/Type
04:51AM 45.6667 -73.9833 180° South 90 104 1,500  Level Montreal Center
04:52AM 45.6833 -73.9500 54° Northeast 90 104 2,800 1,200 Climbing Montreal Center
04:53AM 45.6500 -73.9333 161° South 100 115 3,900 1,200 Climbing Montreal Center
04:54AM 45.6333 -73.9500 215° Southwest 100 115 5,300 1,320 Climbing Montreal Center
04:55AM 45.6000 -73.9333 161° South 100 115 6,600 1,200 Climbing Montreal Center
04:56AM 45.4094 -74.0158 180° South  Level Estimated
04:56AM 45.5667 -73.9333 180° South 100 115 7,800  Level Montreal Center
04:57AM 45.5500 -73.9333 180° South 100 115 9,000 1,080 Climbing Montreal Center
04:58AM 45.5167 -73.9333 180° South 110 127 10,000 540 Climbing Montreal Center
04:59AM 45.4833 -73.9333 180° South 140 161 10,100  Climbing Montreal Center
05:00AM 45.4333 -73.9167 167° South 160 184 10,000 -60 Descending Montreal Center
05:01AM 45.3833 -73.9167 180° South 160 184 10,000  Level Montreal Center
05:02AM 45.3500 -73.9167 180° South 160 184 10,000  Level Montreal Center
05:03AM 45.3000 -73.9167 180° South 160 184 10,000  Level Montreal Center
05:04AM 45.2500 -73.9167 180° South 160 184 10,000  Level Montreal Center
05:05AM 45.2167 -73.9167 180° South 160 184 10,000  Level Montreal Center
05:06AM 45.1667 -73.9333 193° South 160 184 10,000  Level Montreal Center
05:07AM 45.1167 -73.9333 180° South 160 184 10,000  Level Montreal Center
05:08AM 45.0833 -73.9000 145° Southeast 160 184 10,000  Level Montreal Center
05:09AM 45.0333 -73.9000 180° South 160 184 10,000  Level Montreal Center
05:10AM 45.0000 -73.9000 180° South 160 184 10,000  Level Montreal Center
05:11AM 44.9500 -73.9167 193° South 160 184 10,000  Level Montreal Center
05:12AM 44.9000 -73.9167 180° South 160 184 10,000  Level Montreal Center
05:13AM 44.8667 -73.9167 180° South 160 184 10,000 60 Level Montreal Center
05:13AM 44.8561 -73.9100 156° South 156 180 10,100 60 Climbing Boston Center
05:14AM 44.8144 -73.9061 176° South 161 185 10,100  Level Boston Center
05:15AM 44.7708 -73.9050 179° South 161 185 10,100  Level Boston Center
05:16AM 44.7292 -73.9039 179° South 161 185 10,100  Level Boston Center
05:17AM 44.6833 -73.9028 179° South 156 180 10,100  Level Boston Center
05:18AM 44.6417 -73.8989 176° South 156 180 10,100  Level Boston Center
05:19AM 44.5981 -73.8978 179° South 156 180 10,100  Level Boston Center
05:20AM 44.5500 -73.8967 179° South 156 180 10,100  Level Boston Center
05:21AM 44.5064 -73.8956 179° South 156 180 10,100  Level Boston Center
05:22AM 44.4667 -73.8917 176° South 156 180 10,100  Level Boston Center
05:23AM 44.4189 -73.8903 179° South 156 180 10,100  Level Boston Center
05:24AM 44.3753 -73.8864 176° South 156 180 10,100  Level Boston Center
05:25AM 44.3336 -73.8797 173° South 156 180 10,100  Level Boston Center
05:26AM 44.2919 -73.8814 182° South 156 180 10,100  Level Boston Center
05:27AM 44.2461 -73.8803 179° South 156 180 10,100  Level Boston Center
05:28AM 44.2022 -73.8764 176° South 156 180 10,100  Level Boston Center
05:29AM 44.1544 -73.8725 177° South 156 180 10,100  Level Boston Center
05:30AM 44.1150 -73.8714 179° South 161 185 10,100  Level Boston Center
05:31AM 44.0711 -73.8703 179° South 156 180 10,100  Level Boston Center
05:32AM 44.0275 -73.8694 179° South 161 185 10,100  Level Boston Center
05:33AM 43.9836 -73.8656 176° South 161 185 10,100  Level Boston Center
05:34AM 43.9400 -73.8614 176° South 161 185 10,100  Level Boston Center
05:35AM 43.8878 -73.8603 179° South 161 185 10,100  Level Boston Center
05:36AM 43.8442 -73.8592 179° South 161 185 10,100  Level Boston Center
05:37AM 43.7983 -73.8581 179° South 161 185 10,100  Level Boston Center
05:38AM 43.7525 -73.8569 179° South 161 185 10,100  Level Boston Center
05:39AM 43.7089 -73.8533 177° South 161 185 10,100  Level Boston Center
05:40AM 43.6608 -73.8519 179° South 161 185 10,100  Level Boston Center
05:41AM 43.6233 -73.8483 176° South 161 185 10,100  Level Boston Center
05:42AM 43.5775 -73.8472 179° South 161 185 10,100  Level Boston Center
05:43AM 43.5547 -73.8497 185° South 161 185 10,100  Level Boston Center
05:43AM 43.5339 -73.8464 173° South 161 185 10,100  Level Boston Center
05:44AM 43.5047 -73.8456 179° South 160 184 10,100  Level Boston Center
05:44AM 43.4881 -73.8394 165° South 161 185 10,100  Level Boston Center
05:45AM 43.4608 -73.8475 192° South 160 184 10,100  Level Boston Center
05:45AM 43.4442 -73.8414 165° South 161 185 10,100  Level Boston Center
05:46AM 43.4150 -73.8436 183° South 160 184 10,100  Level Boston Center
05:46AM 43.3964 -73.8372 166° South 161 185 10,100  Level Boston Center
05:47AM 43.3650 -73.8422 187° South 161 185 10,100  Level Boston Center
05:47AM 43.3547 -73.8364 158° South 161 185 10,100  Level Boston Center
05:48AM 43.3233 -73.8386 183° South 162 186 10,100  Level Boston Center
05:48AM 43.3069 -73.8325 165° South 161 185 10,100 -300 Level Boston Center
05:49AM 43.2775 -73.8347 183° South 165 190 9,800 -600 Descending Boston Center
05:49AM 43.2611 -73.8314 172° South 161 185 9,500 -1,020 Descending Boston Center
05:50AM 43.2256 -73.8364 186° South 185 213 8,800 -900 Descending Boston Center
05:50AM 43.2067 -73.8303 167° South 177 204 8,600 -840 Descending Boston Center
05:51AM 43.1756 -73.8322 183° South 185 213 8,000 -900 Descending Boston Center
05:51AM 43.1589 -73.8292 172° South 183 211 7,700 -1,020 Descending Boston Center
05:52AM 43.1233 -73.8339 186° South 185 213 7,000 -1,020 Descending Boston Center
05:52AM 43.1047 -73.8278 167° South 183 211 6,700 -840 Descending Boston Center
05:53AM 43.0775 -73.8272 179° South 173 199 6,200 -840 Descending Boston Center
05:53AM 43.0611 -73.8239 172° South 177 204 5,900 -1,020 Descending Boston Center
05:54AM 43.0278 -73.8203 175° South 176 203 5,200 -1,020 Descending Boston Center
05:54AM 43.0131 -73.8144 164° South 177 204 4,900 -1,020 Descending Boston Center
05:55AM 42.9758 -73.7994 164° South 180 207 4,200 -840 Descending Boston Center
05:55AM 42.9633 -73.7906 153° Southeast 177 204 4,100 -120 Descending Boston Center
05:56AM 42.9322 -73.7758 161° South 165 190 4,100  Level Boston Center
05:56AM 42.9261 -73.7700 145° Southeast 170 196 4,100  Level Boston Center
05:57AM 42.8908 -73.7522 160° South 156 180 4,100  Level Boston Center
05:58AM 42.8536 -73.7317 158° South 159 183 4,100 -420 Level Boston Center
05:59AM 42.8081 -73.7164 166° South 164 189 3,400 -960 Descending Boston Center
06:00AM 42.7642 -73.7239 187° South 163 188 2,200 -780 Descending Boston Center
06:01AM 42.7222 -73.7372 193° South 150 173 1,900 -480 Descending Boston Center
06:02AM 42.7092 -73.7906 252° West 157 181 1,300 -720 Descending Boston Center
06:03AM 42.7297 -73.8081 328° Northwest 98 113 500 -840 Descending Boston Center
06:05AM 42.7333 -73.8000 340° North  Level FlightAware Approximate